createdAt,value
2022-11-21T00:01:14.951Z,49.15
2022-11-21T00:03:42.456Z,50.70
2022-11-21T00:06:10.003Z,51.28
2022-11-21T00:08:37.655Z,48.65
2022-11-21T00:11:05.222Z,42.90
2022-11-21T00:13:32.745Z,46.33
2022-11-21T00:16:07.700Z,44.97
2022-11-21T00:18:35.953Z,42.95
2022-11-21T00:21:07.963Z,47.00
2022-11-21T00:23:35.489Z,47.38
2022-11-21T00:26:10.985Z,45.20
2022-11-21T00:28:38.991Z,45.80
2022-11-21T00:31:06.928Z,45.20
2022-11-21T00:33:39.170Z,47.83
2022-11-21T00:36:10.107Z,38.83
2022-11-21T00:38:37.935Z,40.25
2022-11-21T00:41:06.443Z,39.38
2022-11-21T00:43:34.076Z,39.13
2022-11-21T00:46:03.203Z,35.97
2022-11-21T00:48:32.364Z,32.80
2022-11-21T00:51:00.852Z,32.60
2022-11-21T00:53:29.617Z,32.30
2022-11-21T00:55:57.923Z,34.83
2022-11-21T00:58:26.835Z,33.95
2022-11-21T01:01:06.311Z,28.70
2022-11-21T01:03:35.059Z,31.42
2022-11-21T01:06:14.372Z,25.60
2022-11-21T01:08:44.584Z,29.02
2022-11-21T01:11:14.836Z,27.83
2022-11-21T01:13:42.834Z,27.05
2022-11-21T01:16:14.684Z,26.27
2022-11-21T01:18:42.241Z,27.30
2022-11-21T01:21:21.344Z,24.92
2022-11-21T01:23:49.735Z,23.90
2022-11-21T01:26:19.598Z,23.17
2022-11-21T01:28:47.695Z,22.10
2022-11-21T01:31:21.165Z,18.92
2022-11-21T01:33:49.315Z,21.65
2022-11-21T01:36:20.334Z,23.45
2022-11-21T01:38:50.100Z,20.58
2022-11-21T01:41:20.696Z,22.15
2022-11-21T01:43:48.903Z,21.52
2022-11-21T01:46:18.412Z,23.27
2022-11-21T01:48:53.073Z,22.85
2022-11-21T01:51:54.255Z,25.00
2022-11-21T01:54:33.103Z,26.02
2022-11-21T01:57:16.357Z,26.15
2022-11-21T02:00:05.403Z,21.70
2022-11-21T02:02:36.900Z,18.65
2022-11-21T02:05:07.641Z,17.20
2022-11-21T02:07:39.425Z,18.48
2022-11-21T02:10:07.820Z,17.50
2022-11-21T02:12:45.115Z,13.25
2022-11-21T02:15:12.864Z,15.60
2022-11-21T02:17:40.543Z,11.68
2022-11-21T02:20:11.193Z,11.75
2022-11-21T02:23:02.915Z,11.70
2022-11-21T02:25:38.653Z,9.60
2022-11-21T02:28:09.255Z,9.43
2022-11-21T02:30:40.123Z,8.38
2022-11-21T02:33:08.534Z,7.45
2022-11-21T02:35:36.321Z,6.78
2022-11-21T02:38:24.015Z,5.68
2022-11-21T02:41:26.832Z,6.53
2022-11-21T02:44:02.657Z,4.10
2022-11-21T02:46:32.995Z,5.97
2022-11-21T02:49:04.607Z,5.93
2022-11-21T02:51:32.204Z,6.22
2022-11-21T02:53:59.724Z,6.50
2022-11-21T02:56:27.224Z,6.30
2022-11-21T02:58:55.202Z,6.05
2022-11-21T03:01:22.844Z,6.95
2022-11-21T03:03:50.258Z,9.65
2022-11-21T03:06:17.814Z,7.57
2022-11-21T03:08:45.274Z,6.47
2022-11-21T03:11:12.770Z,6.95
2022-11-21T03:13:40.225Z,7.40
2022-11-21T03:16:07.701Z,5.75
2022-11-21T03:18:35.102Z,7.55
2022-11-21T03:21:02.591Z,6.57
2022-11-21T03:23:30.096Z,6.97
2022-11-21T03:25:59.848Z,5.22
2022-11-21T03:28:27.486Z,7.00
2022-11-21T03:30:54.912Z,6.50
2022-11-21T03:33:22.354Z,5.75
2022-11-21T03:35:49.943Z,5.82
2022-11-21T03:38:17.764Z,7.78
2022-11-21T03:40:45.195Z,6.35
2022-11-21T03:43:12.704Z,5.60
2022-11-21T03:45:40.189Z,4.05
2022-11-21T03:48:07.721Z,6.45
2022-11-21T03:50:35.162Z,6.40
2022-11-21T03:53:02.864Z,5.68
2022-11-21T03:55:30.302Z,4.88
2022-11-21T03:57:57.676Z,5.70
2022-11-21T04:00:25.253Z,3.67
2022-11-21T04:02:52.624Z,5.28
2022-11-21T04:05:20.335Z,5.00
2022-11-21T04:07:47.801Z,5.13
2022-11-21T04:10:15.601Z,5.20
2022-11-21T04:12:43.030Z,6.13
2022-11-21T04:15:13.731Z,5.53
2022-11-21T04:17:41.784Z,4.15
2022-11-21T04:20:09.926Z,4.13
2022-11-21T04:22:37.383Z,3.33
2022-11-21T04:25:05.236Z,3.53
2022-11-21T04:27:32.794Z,3.47
2022-11-21T04:30:00.229Z,3.80
2022-11-21T04:32:27.864Z,2.97
2022-11-21T04:34:55.304Z,4.10
2022-11-21T04:37:22.808Z,3.60
2022-11-21T04:39:50.335Z,4.55
2022-11-21T04:42:17.819Z,2.85
2022-11-21T04:44:45.481Z,3.72
2022-11-21T04:47:12.930Z,3.72
2022-11-21T04:49:40.511Z,3.58
2022-11-21T04:52:08.010Z,4.43
2022-11-21T04:54:35.520Z,1.60
2022-11-21T04:57:03.098Z,2.33
2022-11-21T04:59:30.600Z,3.97
2022-11-21T05:01:58.412Z,5.22
2022-11-21T05:04:26.003Z,4.47
2022-11-21T05:06:53.713Z,2.40
2022-11-21T05:09:21.246Z,1.80
2022-11-21T05:12:07.365Z,1.88
2022-11-21T05:14:34.947Z,1.85
2022-11-21T05:17:02.415Z,1.83
2022-11-21T05:19:29.934Z,1.85
2022-11-21T05:21:57.490Z,2.00
2022-11-21T05:24:25.197Z,1.67
2022-11-21T05:26:54.012Z,3.45
2022-11-21T05:29:27.786Z,1.98
2022-11-21T05:31:56.035Z,3.97
2022-11-21T05:34:23.492Z,2.67
2022-11-21T05:36:57.335Z,0.65
2022-11-21T05:39:25.664Z,1.02
2022-11-21T05:41:57.163Z,1.15
2022-11-21T05:44:27.547Z,0.60
2022-11-21T05:46:55.396Z,0.93
2022-11-21T05:49:22.894Z,0.50
2022-11-21T05:51:50.437Z,0.40
2022-11-21T05:54:18.023Z,0.47
2022-11-21T05:56:45.525Z,0.82
2022-11-21T05:59:13.185Z,0.77
2022-11-21T06:01:59.496Z,0.40
2022-11-21T06:04:27.276Z,1.05
2022-11-21T06:06:55.006Z,0.57
2022-11-21T06:09:22.587Z,0.40
2022-11-21T06:11:50.075Z,0.63
2022-11-21T06:14:17.975Z,0.35
2022-11-21T06:16:45.403Z,0.93
2022-11-21T06:19:12.837Z,1.63
2022-11-21T06:21:41.096Z,0.30
2022-11-21T06:24:08.814Z,0.50
2022-11-21T06:26:36.266Z,0.20
2022-11-21T06:29:03.725Z,1.05
2022-11-21T06:31:32.047Z,1.02
2022-11-21T06:33:59.774Z,1.27
2022-11-21T06:36:27.536Z,1.92
2022-11-21T06:38:56.314Z,0.73
2022-11-21T06:41:26.549Z,1.25
2022-11-21T06:43:54.088Z,0.98
2022-11-21T06:46:21.573Z,0.90
2022-11-21T06:48:49.249Z,2.05
2022-11-21T06:51:19.429Z,13.80
2022-11-21T06:53:48.769Z,17.70
2022-11-21T06:56:16.274Z,18.77
2022-11-21T06:58:43.836Z,38.53
2022-11-21T07:01:11.448Z,27.40
2022-11-21T07:03:39.385Z,18.23
2022-11-21T07:06:07.466Z,29.20
2022-11-21T07:08:36.300Z,37.47
2022-11-21T07:13:54.031Z,11.98
2022-11-21T07:16:21.572Z,11.35
2022-11-21T07:18:49.194Z,9.93
2022-11-21T07:21:16.595Z,7.43
2022-11-21T07:23:44.171Z,14.05
2022-11-21T07:26:11.761Z,6.75
2022-11-21T07:28:39.225Z,5.85
2022-11-21T07:31:12.975Z,5.18
2022-11-21T07:33:43.555Z,7.72
2022-11-21T07:36:12.971Z,5.15
2022-11-21T07:38:41.867Z,4.05
2022-11-21T07:41:10.404Z,5.05
2022-11-21T07:43:37.923Z,4.07
2022-11-21T07:46:05.465Z,3.85
2022-11-21T07:48:32.980Z,3.88
2022-11-21T07:51:04.167Z,4.47
2022-11-21T07:53:31.765Z,3.80
2022-11-21T07:56:00.192Z,4.10
2022-11-21T07:58:27.814Z,5.15
2022-11-21T08:00:55.204Z,3.35
2022-11-21T08:03:23.631Z,3.90
2022-11-21T08:05:51.095Z,3.30
2022-11-21T08:08:18.988Z,3.72
2022-11-21T08:10:47.154Z,4.30
2022-11-21T08:13:15.174Z,4.68
2022-11-21T08:15:42.726Z,4.53
2022-11-21T08:18:15.236Z,5.82
2022-11-21T08:20:43.074Z,6.30
2022-11-21T08:23:11.036Z,8.68
2022-11-21T08:25:40.232Z,9.40
2022-11-21T08:28:09.691Z,12.73
2022-11-21T08:30:37.454Z,12.98
2022-11-21T08:33:05.347Z,11.95
2022-11-21T08:35:32.988Z,12.80
2022-11-21T08:38:02.041Z,12.95
2022-11-21T08:40:30.875Z,13.93
2022-11-21T08:43:09.425Z,12.23
2022-11-21T08:45:38.786Z,10.98
2022-11-21T08:48:11.813Z,12.13
2022-11-21T08:50:39.651Z,13.52
2022-11-21T08:53:07.145Z,14.48
2022-11-21T08:55:34.614Z,16.98
2022-11-21T08:58:02.147Z,19.10
2022-11-21T09:00:29.564Z,24.00
2022-11-21T09:02:56.996Z,28.65
2022-11-21T09:05:24.850Z,29.38
2022-11-21T09:07:58.887Z,31.52
2022-11-21T09:10:27.406Z,31.13
2022-11-21T09:12:57.392Z,32.85
2022-11-21T09:15:43.648Z,37.05
2022-11-21T09:18:11.515Z,35.90
2022-11-21T09:20:44.748Z,35.75
2022-11-21T09:23:15.183Z,39.88
2022-11-21T09:25:43.634Z,34.05
2022-11-21T09:28:12.988Z,33.65
2022-11-21T09:30:42.103Z,28.75
2022-11-21T09:33:15.014Z,25.08
2022-11-21T09:35:42.923Z,24.20
2022-11-21T09:38:10.361Z,26.63
2022-11-21T09:40:44.870Z,23.63
2022-11-21T09:43:38.444Z,22.08
2022-11-21T09:46:17.806Z,24.60
2022-11-21T09:48:51.241Z,21.08
2022-11-21T09:51:20.845Z,25.80
2022-11-21T09:54:22.285Z,25.70
2022-11-21T09:56:52.744Z,25.38
2022-11-21T09:59:41.054Z,24.90
2022-11-21T10:02:18.071Z,25.98
2022-11-21T10:04:49.384Z,28.02
2022-11-21T10:07:19.936Z,27.02
2022-11-21T10:10:24.435Z,27.17
2022-11-21T10:15:38.216Z,27.38
2022-11-21T10:18:43.324Z,27.67
2022-11-21T10:21:16.415Z,27.70
2022-11-21T10:24:06.388Z,30.52
2022-11-21T10:26:55.820Z,28.23
2022-11-21T10:29:32.435Z,26.92
2022-11-21T10:32:08.411Z,27.50
2022-11-21T10:34:38.405Z,27.00
2022-11-21T10:37:35.081Z,27.48
2022-11-21T10:40:45.740Z,29.45
2022-11-21T10:43:58.482Z,30.23
2022-11-21T10:46:26.095Z,33.75
2022-11-21T10:49:00.156Z,35.45
2022-11-21T10:52:08.853Z,35.40
2022-11-21T10:55:05.114Z,33.05
2022-11-21T10:57:39.851Z,36.05
2022-11-21T11:00:13.279Z,32.95
2022-11-21T11:02:43.200Z,34.80
2022-11-21T11:05:16.481Z,31.08
2022-11-21T11:08:03.625Z,32.33
2022-11-21T11:10:33.724Z,30.45
2022-11-21T11:16:16.705Z,34.75
2022-11-21T11:18:55.243Z,34.75
2022-11-21T11:21:25.077Z,32.50
2022-11-21T11:23:55.083Z,28.23
2022-11-21T11:26:32.964Z,34.90
2022-11-21T11:29:20.783Z,33.58
2022-11-21T11:32:19.409Z,29.65
2022-11-21T11:34:51.500Z,33.38
2022-11-21T11:37:51.318Z,36.80
2022-11-21T11:40:21.741Z,36.10
2022-11-21T11:43:12.473Z,36.47
2022-11-21T11:46:19.800Z,35.88
2022-11-21T11:49:17.126Z,38.35
2022-11-21T11:51:42.863Z,41.35
2022-11-21T11:54:18.536Z,36.53
2022-11-21T11:56:47.459Z,35.13
2022-11-21T11:59:23.454Z,36.72
2022-11-21T12:02:11.693Z,36.03
2022-11-21T12:05:03.383Z,41.45
2022-11-21T12:08:39.528Z,37.35
2022-11-21T12:11:33.154Z,41.90
2022-11-21T12:14:11.634Z,45.55
2022-11-21T12:16:41.464Z,46.35
2022-11-21T12:19:15.464Z,51.72
2022-11-21T12:21:42.960Z,54.50
2022-11-21T12:24:12.405Z,52.97
2022-11-21T12:26:52.173Z,52.03
2022-11-21T12:30:04.955Z,60.65
2022-11-21T12:32:35.354Z,62.15
2022-11-21T12:35:14.870Z,69.40
2022-11-21T12:38:08.313Z,69.07
2022-11-21T12:40:47.357Z,83.55
2022-11-21T12:43:48.396Z,74.95
2022-11-21T12:46:31.853Z,79.57
2022-11-21T12:49:21.102Z,62.08
2022-11-21T12:52:30.980Z,67.03
2022-11-21T12:55:01.583Z,66.07
2022-11-21T12:58:01.290Z,76.55
2022-11-21T13:00:39.501Z,63.13
2022-11-21T13:03:34.864Z,72.72
2022-11-21T13:06:04.920Z,84.72
2022-11-21T13:08:36.865Z,85.43
2022-11-21T13:11:28.704Z,71.75
2022-11-21T13:14:09.224Z,83.93
2022-11-21T13:16:39.849Z,77.55
2022-11-21T13:19:47.192Z,86.13
2022-11-21T13:22:36.357Z,83.45
2022-11-21T13:25:23.384Z,77.80
2022-11-21T13:27:51.304Z,89.15
2022-11-21T13:30:21.922Z,96.38
2022-11-21T13:32:55.992Z,106.82
2022-11-21T13:35:23.380Z,94.90
2022-11-21T13:38:02.372Z,119.45
2022-11-21T13:40:32.371Z,148.07
2022-11-21T13:43:35.744Z,104.95
2022-11-21T13:46:03.974Z,235.52
2022-11-21T13:48:31.544Z,295.67
2022-11-21T13:51:25.963Z,233.32
2022-11-21T13:54:12.170Z,294.60
2022-11-21T13:57:11.194Z,296.90
2022-11-21T14:00:20.486Z,177.82
2022-11-21T14:03:11.206Z,247.98
2022-11-21T14:05:55.626Z,133.32
2022-11-21T14:08:26.922Z,125.75
2022-11-21T14:10:58.107Z,202.55
2022-11-21T14:13:28.624Z,180.68
2022-11-21T14:16:11.356Z,270.30
2022-11-21T14:18:42.395Z,114.38
2022-11-21T14:21:29.546Z,156.98
2022-11-21T14:24:04.381Z,92.20
2022-11-21T14:26:39.581Z,141.98
2022-11-21T14:29:26.827Z,257.83
2022-11-21T14:31:55.816Z,113.18
2022-11-21T14:34:29.031Z,130.13
2022-11-21T14:37:00.539Z,132.25
2022-11-21T14:39:43.305Z,121.82
2022-11-21T14:42:15.476Z,139.93
2022-11-21T14:44:43.664Z,174.25
2022-11-21T14:47:25.131Z,148.13
2022-11-21T14:49:54.844Z,206.15
2022-11-21T14:52:26.684Z,144.38
2022-11-21T14:55:28.522Z,160.90
2022-11-21T14:57:45.404Z,249.48
2022-11-21T15:03:19.401Z,114.07
2022-11-21T15:06:01.871Z,128.07
2022-11-21T15:11:25.967Z,127.30
2022-11-21T15:14:15.441Z,216.50
2022-11-21T15:16:49.748Z,141.57
2022-11-21T15:19:21.793Z,127.93
2022-11-21T15:21:51.532Z,117.68
2022-11-21T15:24:36.469Z,107.90
2022-11-21T15:27:28.998Z,96.47
2022-11-21T15:30:22.212Z,105.70
2022-11-21T15:33:04.091Z,112.90
2022-11-21T15:35:40.753Z,89.88
2022-11-21T15:38:31.395Z,94.93
2022-11-21T15:41:22.442Z,91.78
2022-11-21T15:43:55.649Z,83.30
2022-11-21T15:46:25.792Z,92.55
2022-11-21T15:48:58.302Z,82.82
2022-11-21T15:52:10.467Z,84.68
2022-11-21T15:54:28.216Z,82.50
2022-11-21T15:56:55.794Z,84.30
2022-11-21T15:59:23.272Z,78.35
2022-11-21T16:01:50.702Z,77.45
2022-11-21T16:04:23.894Z,79.97
2022-11-21T16:06:56.212Z,72.40
2022-11-21T16:09:23.729Z,81.35
2022-11-21T16:11:51.147Z,75.68
2022-11-21T16:14:18.742Z,82.60
2022-11-21T16:16:47.862Z,75.15
2022-11-21T16:19:16.129Z,76.28
2022-11-21T16:21:43.812Z,84.43
2022-11-21T16:24:11.566Z,83.80
2022-11-21T16:26:38.953Z,78.20
2022-11-21T16:29:06.481Z,76.03
2022-11-21T16:31:34.304Z,74.97
2022-11-21T16:34:01.907Z,74.72
2022-11-21T16:36:30.689Z,71.38
2022-11-21T16:39:01.923Z,80.78
2022-11-21T16:41:33.011Z,78.30
2022-11-21T16:44:00.482Z,70.25
2022-11-21T16:46:27.938Z,66.03
2022-11-21T16:49:02.869Z,81.55
2022-11-21T16:51:30.731Z,66.65
2022-11-21T16:54:03.062Z,82.93
2022-11-21T16:56:34.772Z,75.50
2022-11-21T16:59:02.229Z,74.60
2022-11-21T17:01:29.763Z,72.93
2022-11-21T17:03:57.452Z,69.82
2022-11-21T17:06:28.484Z,70.40
2022-11-21T17:08:55.937Z,69.15
2022-11-21T17:11:31.386Z,76.18
2022-11-21T17:14:02.481Z,67.05
2022-11-21T17:16:31.032Z,70.70
2022-11-21T17:19:01.940Z,68.32
2022-11-21T17:21:29.831Z,69.30
2022-11-21T17:23:57.902Z,71.53
2022-11-21T17:26:27.576Z,67.00
2022-11-21T17:28:57.801Z,70.65
2022-11-21T17:31:25.850Z,69.93
2022-11-21T17:33:54.828Z,75.93
2022-11-21T17:36:24.194Z,76.25
2022-11-21T17:38:52.692Z,72.28
2022-11-21T17:41:22.542Z,64.50
2022-11-21T17:43:53.842Z,62.40
2022-11-21T17:46:21.825Z,48.55
2022-11-21T17:48:54.879Z,34.75
2022-11-21T17:51:25.796Z,30.35
2022-11-21T17:53:53.609Z,27.73
2022-11-21T17:56:23.748Z,25.25
2022-11-21T17:58:52.363Z,33.13
2022-11-21T18:01:20.548Z,29.58
2022-11-21T18:03:53.592Z,29.95
2022-11-21T18:06:21.268Z,34.83
2022-11-21T18:08:49.461Z,33.20
2022-11-21T18:11:21.201Z,40.50
2022-11-21T18:13:49.816Z,34.88
2022-11-21T18:16:20.643Z,37.92
2022-11-21T18:18:49.807Z,34.45
2022-11-21T18:21:19.593Z,26.67
2022-11-21T18:23:47.275Z,27.27
2022-11-21T18:26:18.063Z,24.05
2022-11-21T18:28:45.457Z,25.00
2022-11-21T18:31:15.403Z,22.08
2022-11-21T18:33:43.402Z,22.77
2022-11-21T18:36:12.137Z,23.75
2022-11-21T18:38:53.734Z,23.02
2022-11-21T18:41:30.762Z,23.48
2022-11-21T18:44:00.332Z,26.63
2022-11-21T18:46:30.264Z,28.63
2022-11-21T18:49:05.209Z,24.83
2022-11-21T18:51:34.238Z,29.80
2022-11-21T18:54:05.914Z,26.60
2022-11-21T18:56:33.791Z,29.02
2022-11-21T18:59:02.003Z,29.75
2022-11-21T19:01:30.360Z,28.27
2022-11-21T19:03:57.972Z,29.73
2022-11-21T19:06:26.959Z,27.10
2022-11-21T19:08:55.797Z,27.27
2022-11-21T19:11:26.012Z,31.20
2022-11-21T19:13:55.453Z,27.10
2022-11-21T19:16:25.711Z,29.70
2022-11-21T19:19:33.771Z,24.45
2022-11-21T19:21:45.703Z,24.52
2022-11-21T19:24:14.878Z,23.13
2022-11-21T19:26:42.596Z,25.90
2022-11-21T19:29:10.601Z,21.20
2022-11-21T19:31:44.553Z,21.92
2022-11-21T19:34:14.599Z,18.50
2022-11-21T19:41:07.628Z,23.20
2022-11-21T19:43:35.048Z,24.75
2022-11-21T19:46:06.198Z,22.15
2022-11-21T19:48:34.117Z,22.40
2022-11-21T19:51:02.974Z,23.73
2022-11-21T19:53:35.393Z,25.08
2022-11-21T19:56:20.390Z,25.70
2022-11-21T19:58:48.903Z,20.90
2022-11-21T20:01:21.603Z,25.23
2022-11-21T20:03:53.400Z,23.43
2022-11-21T20:06:23.601Z,25.85
2022-11-21T20:08:56.428Z,21.35
2022-11-21T20:11:25.319Z,23.27
2022-11-21T20:13:53.118Z,21.50
2022-11-21T20:16:26.047Z,21.10
2022-11-21T20:18:57.754Z,24.85
2022-11-21T20:21:26.064Z,20.67
2022-11-21T20:23:54.018Z,23.50
2022-11-21T20:26:23.188Z,20.10
2022-11-21T20:28:51.136Z,19.15
2022-11-21T20:31:21.879Z,24.65
2022-11-21T20:33:51.593Z,21.98
2022-11-21T20:36:22.207Z,22.33
2022-11-21T20:39:01.298Z,21.33
2022-11-21T20:41:31.543Z,23.05
2022-11-21T20:46:49.981Z,21.30
2022-11-21T20:49:17.679Z,22.00
2022-11-21T20:54:32.921Z,20.63
2022-11-21T20:57:00.478Z,17.58
2022-11-21T20:59:28.388Z,17.35
2022-11-21T21:01:56.152Z,17.88
2022-11-21T21:04:23.627Z,18.25
2022-11-21T21:06:51.109Z,19.40
2022-11-21T21:09:18.504Z,19.48
2022-11-21T21:11:53.645Z,20.83
2022-11-21T21:14:22.567Z,21.40
2022-11-21T21:16:50.606Z,23.17
2022-11-21T21:19:18.772Z,25.92
2022-11-21T21:21:46.367Z,26.95
2022-11-21T21:24:14.848Z,29.40
2022-11-21T21:26:44.841Z,28.83
2022-11-21T21:29:18.229Z,29.58
2022-11-21T21:31:50.997Z,31.30
2022-11-21T21:34:21.088Z,30.08
2022-11-21T21:36:49.636Z,29.55
2022-11-21T21:39:17.119Z,30.55
2022-11-21T21:41:46.751Z,33.75
2022-11-21T21:44:15.489Z,29.73
2022-11-21T21:46:43.164Z,28.25
2022-11-21T21:49:10.997Z,30.30
2022-11-21T21:51:38.750Z,29.20
2022-11-21T21:54:06.718Z,31.15
2022-11-21T21:56:35.407Z,28.17
2022-11-21T21:59:02.818Z,28.40
2022-11-21T22:01:32.551Z,26.70
2022-11-21T22:04:04.882Z,31.10
2022-11-21T22:06:35.807Z,30.58
2022-11-21T22:09:03.504Z,29.30
2022-11-21T22:11:33.141Z,30.85
2022-11-21T22:14:06.387Z,29.00
2022-11-21T22:16:34.178Z,27.50
2022-11-21T22:19:01.642Z,28.35
2022-11-21T22:21:34.704Z,25.58
2022-11-21T22:26:52.690Z,23.00
2022-11-21T22:29:20.110Z,27.98
2022-11-21T22:31:47.593Z,29.60
2022-11-21T22:34:15.084Z,30.90
2022-11-21T22:36:43.086Z,28.40
2022-11-21T22:39:10.686Z,27.58
2022-11-21T22:41:38.298Z,32.60
2022-11-21T22:44:05.698Z,32.28
2022-11-21T22:46:33.248Z,33.90
2022-11-21T22:49:00.675Z,32.78
2022-11-21T22:51:29.786Z,36.92
2022-11-21T22:53:57.861Z,33.38
2022-11-21T22:56:26.117Z,44.30
2022-11-21T22:58:53.785Z,39.13
2022-11-21T23:01:24.252Z,43.03
2022-11-21T23:03:52.760Z,38.47
2022-11-21T23:06:24.004Z,35.30
2022-11-21T23:08:53.666Z,39.25
2022-11-21T23:11:24.674Z,41.17
2022-11-21T23:13:52.638Z,40.55
2022-11-21T23:16:21.309Z,35.25
2022-11-21T23:18:51.479Z,35.47
2022-11-21T23:21:19.058Z,29.27
2022-11-21T23:23:46.539Z,34.67
2022-11-21T23:26:14.217Z,33.05
2022-11-21T23:28:41.838Z,32.15
2022-11-21T23:31:10.871Z,35.38
2022-11-21T23:33:38.566Z,28.52
2022-11-21T23:36:06.319Z,34.85
2022-11-21T23:38:33.828Z,36.70
2022-11-21T23:41:01.308Z,39.08
2022-11-21T23:43:29.084Z,37.10
2022-11-21T23:45:56.608Z,34.83
2022-11-21T23:48:27.449Z,34.22
2022-11-21T23:50:55.028Z,33.08
2022-11-21T23:53:23.103Z,31.95
2022-11-21T23:55:50.764Z,35.42
2022-11-21T23:58:18.277Z,33.33
